sensor_id;sensor_type;location;lat;lon;timestamp;P1;durP1;ratioP1;P2;durP2;ratioP2
70866;SDS011;58487;53.474;49.470;2022-07-18T00:01:55;14.13;;;9.77;;
70866;SDS011;58487;53.474;49.470;2022-07-18T00:04:22;14.63;;;9.97;;
70866;SDS011;58487;53.474;49.470;2022-07-18T00:06:48;15.15;;;10.20;;
70866;SDS011;58487;53.474;49.470;2022-07-18T00:09:14;14.98;;;9.70;;
70866;SDS011;58487;53.474;49.470;2022-07-18T00:11:40;13.73;;;9.63;;
70866;SDS011;58487;53.474;49.470;2022-07-18T00:14:06;15.30;;;10.32;;
70866;SDS011;58487;53.474;49.470;2022-07-18T00:16:33;14.90;;;10.27;;
70866;SDS011;58487;53.474;49.470;2022-07-18T00:18:59;13.23;;;10.43;;
70866;SDS011;58487;53.474;49.470;2022-07-18T00:21:25;13.48;;;10.07;;
70866;SDS011;58487;53.474;49.470;2022-07-18T00:23:51;14.95;;;10.35;;
70866;SDS011;58487;53.474;49.470;2022-07-18T00:26:18;14.43;;;10.32;;
70866;SDS011;58487;53.474;49.470;2022-07-18T00:28:44;14.83;;;10.00;;
70866;SDS011;58487;53.474;49.470;2022-07-18T00:31:10;14.20;;;10.45;;
70866;SDS011;58487;53.474;49.470;2022-07-18T00:33:36;14.52;;;10.88;;
70866;SDS011;58487;53.474;49.470;2022-07-18T00:36:02;18.38;;;12.32;;
70866;SDS011;58487;53.474;49.470;2022-07-18T00:38:28;16.20;;;10.90;;
70866;SDS011;58487;53.474;49.470;2022-07-18T00:40:54;17.37;;;11.73;;
70866;SDS011;58487;53.474;49.470;2022-07-18T00:43:20;15.43;;;10.85;;
70866;SDS011;58487;53.474;49.470;2022-07-18T00:45:46;14.95;;;11.00;;
70866;SDS011;58487;53.474;49.470;2022-07-18T00:48:14;15.30;;;10.75;;
70866;SDS011;58487;53.474;49.470;2022-07-18T00:50:41;15.88;;;11.32;;
70866;SDS011;58487;53.474;49.470;2022-07-18T00:53:08;17.23;;;11.17;;
70866;SDS011;58487;53.474;49.470;2022-07-18T00:55:39;17.60;;;11.05;;
70866;SDS011;58487;53.474;49.470;2022-07-18T00:58:10;18.17;;;11.60;;
70866;SDS011;58487;53.474;49.470;2022-07-18T01:00:37;14.45;;;11.50;;
70866;SDS011;58487;53.474;49.470;2022-07-18T01:03:22;14.15;;;10.60;;
70866;SDS011;58487;53.474;49.470;2022-07-18T01:05:49;17.13;;;10.57;;
70866;SDS011;58487;53.474;49.470;2022-07-18T01:08:15;15.48;;;11.07;;
70866;SDS011;58487;53.474;49.470;2022-07-18T01:10:41;16.25;;;10.85;;
70866;SDS011;58487;53.474;49.470;2022-07-18T01:13:07;15.98;;;9.88;;
70866;SDS011;58487;53.474;49.470;2022-07-18T01:15:33;14.18;;;10.27;;
70866;SDS011;58487;53.474;49.470;2022-07-18T01:17:59;13.97;;;9.73;;
70866;SDS011;58487;53.474;49.470;2022-07-18T01:20:29;13.73;;;9.98;;
70866;SDS011;58487;53.474;49.470;2022-07-18T01:22:56;18.95;;;10.00;;
70866;SDS011;58487;53.474;49.470;2022-07-18T01:25:23;14.50;;;10.50;;
70866;SDS011;58487;53.474;49.470;2022-07-18T01:27:49;13.93;;;10.20;;
70866;SDS011;58487;53.474;49.470;2022-07-18T01:30:15;14.43;;;9.80;;
70866;SDS011;58487;53.474;49.470;2022-07-18T01:32:42;17.17;;;10.48;;
70866;SDS011;58487;53.474;49.470;2022-07-18T01:35:08;15.32;;;10.25;;
70866;SDS011;58487;53.474;49.470;2022-07-18T01:37:34;13.45;;;10.23;;
70866;SDS011;58487;53.474;49.470;2022-07-18T01:40:00;16.20;;;10.95;;
70866;SDS011;58487;53.474;49.470;2022-07-18T01:42:27;16.20;;;10.73;;
70866;SDS011;58487;53.474;49.470;2022-07-18T01:44:52;14.30;;;10.70;;
70866;SDS011;58487;53.474;49.470;2022-07-18T01:47:19;19.08;;;10.65;;
70866;SDS011;58487;53.474;49.470;2022-07-18T01:49:44;15.70;;;11.20;;
70866;SDS011;58487;53.474;49.470;2022-07-18T01:52:10;15.30;;;10.70;;
70866;SDS011;58487;53.474;49.470;2022-07-18T01:54:37;15.63;;;11.00;;
70866;SDS011;58487;53.474;49.470;2022-07-18T01:57:04;17.67;;;10.35;;
70866;SDS011;58487;53.474;49.470;2022-07-18T01:59:31;15.05;;;10.13;;
70866;SDS011;58487;53.474;49.470;2022-07-18T02:01:57;17.77;;;10.38;;
70866;SDS011;58487;53.474;49.470;2022-07-18T02:04:24;15.18;;;10.18;;
70866;SDS011;58487;53.474;49.470;2022-07-18T02:07:10;15.70;;;10.80;;
70866;SDS011;58487;53.474;49.470;2022-07-18T02:09:36;16.88;;;10.63;;
70866;SDS011;58487;53.474;49.470;2022-07-18T02:12:03;14.63;;;9.98;;
70866;SDS011;58487;53.474;49.470;2022-07-18T02:14:29;16.80;;;10.90;;
70866;SDS011;58487;53.474;49.470;2022-07-18T02:16:55;16.85;;;10.93;;
70866;SDS011;58487;53.474;49.470;2022-07-18T02:19:21;24.13;;;10.93;;
70866;SDS011;58487;53.474;49.470;2022-07-18T02:21:47;15.43;;;10.77;;
70866;SDS011;58487;53.474;49.470;2022-07-18T02:24:13;16.13;;;10.27;;
70866;SDS011;58487;53.474;49.470;2022-07-18T02:26:39;16.25;;;10.80;;
70866;SDS011;58487;53.474;49.470;2022-07-18T02:29:05;14.65;;;10.27;;
70866;SDS011;58487;53.474;49.470;2022-07-18T02:31:31;18.27;;;10.70;;
70866;SDS011;58487;53.474;49.470;2022-07-18T02:33:57;18.52;;;10.40;;
70866;SDS011;58487;53.474;49.470;2022-07-18T02:36:23;17.02;;;10.15;;
70866;SDS011;58487;53.474;49.470;2022-07-18T02:38:49;13.63;;;10.02;;
70866;SDS011;58487;53.474;49.470;2022-07-18T02:41:15;14.82;;;10.55;;
70866;SDS011;58487;53.474;49.470;2022-07-18T02:43:41;14.70;;;10.73;;
70866;SDS011;58487;53.474;49.470;2022-07-18T02:46:07;15.50;;;9.90;;
70866;SDS011;58487;53.474;49.470;2022-07-18T02:48:33;14.05;;;9.52;;
70866;SDS011;58487;53.474;49.470;2022-07-18T02:50:59;16.23;;;10.50;;
70866;SDS011;58487;53.474;49.470;2022-07-18T02:53:25;15.50;;;9.80;;
70866;SDS011;58487;53.474;49.470;2022-07-18T02:55:51;11.93;;;8.70;;
70866;SDS011;58487;53.474;49.470;2022-07-18T02:58:17;12.32;;;8.30;;
70866;SDS011;58487;53.474;49.470;2022-07-18T03:00:44;13.27;;;8.93;;
70866;SDS011;58487;53.474;49.470;2022-07-18T03:03:10;12.30;;;9.00;;
70866;SDS011;58487;53.474;49.470;2022-07-18T03:05:36;13.00;;;9.10;;
70866;SDS011;58487;53.474;49.470;2022-07-18T03:08:02;14.10;;;8.53;;
70866;SDS011;58487;53.474;49.470;2022-07-18T03:10:28;11.35;;;7.97;;
70866;SDS011;58487;53.474;49.470;2022-07-18T03:12:55;12.73;;;8.73;;
70866;SDS011;58487;53.474;49.470;2022-07-18T03:15:21;10.73;;;7.90;;
70866;SDS011;58487;53.474;49.470;2022-07-18T03:17:47;12.68;;;8.38;;
70866;SDS011;58487;53.474;49.470;2022-07-18T03:20:13;11.83;;;7.80;;
70866;SDS011;58487;53.474;49.470;2022-07-18T03:22:39;10.45;;;7.78;;
70866;SDS011;58487;53.474;49.470;2022-07-18T03:25:05;12.20;;;8.10;;
70866;SDS011;58487;53.474;49.470;2022-07-18T03:27:31;12.88;;;7.82;;
70866;SDS011;58487;53.474;49.470;2022-07-18T03:29:57;10.18;;;7.90;;
70866;SDS011;58487;53.474;49.470;2022-07-18T03:32:23;14.23;;;8.40;;
70866;SDS011;58487;53.474;49.470;2022-07-18T03:34:50;15.75;;;8.00;;
70866;SDS011;58487;53.474;49.470;2022-07-18T03:37:16;10.07;;;7.85;;
70866;SDS011;58487;53.474;49.470;2022-07-18T03:39:42;11.80;;;7.95;;
70866;SDS011;58487;53.474;49.470;2022-07-18T03:42:08;11.38;;;7.78;;
70866;SDS011;58487;53.474;49.470;2022-07-18T03:44:34;12.90;;;8.60;;
70866;SDS011;58487;53.474;49.470;2022-07-18T03:47:00;14.23;;;8.52;;
70866;SDS011;58487;53.474;49.470;2022-07-18T03:49:26;13.70;;;8.40;;
70866;SDS011;58487;53.474;49.470;2022-07-18T03:51:52;12.27;;;8.70;;
70866;SDS011;58487;53.474;49.470;2022-07-18T03:54:21;13.00;;;8.77;;
70866;SDS011;58487;53.474;49.470;2022-07-18T03:56:48;11.87;;;9.20;;
70866;SDS011;58487;53.474;49.470;2022-07-18T03:59:15;11.55;;;8.40;;
70866;SDS011;58487;53.474;49.470;2022-07-18T04:01:41;12.20;;;8.15;;
70866;SDS011;58487;53.474;49.470;2022-07-18T04:04:07;15.52;;;8.43;;
70866;SDS011;58487;53.474;49.470;2022-07-18T04:06:33;11.90;;;8.27;;
70866;SDS011;58487;53.474;49.470;2022-07-18T04:08:59;13.90;;;8.60;;
70866;SDS011;58487;53.474;49.470;2022-07-18T04:11:25;15.85;;;8.75;;
70866;SDS011;58487;53.474;49.470;2022-07-18T04:13:51;12.70;;;8.18;;
70866;SDS011;58487;53.474;49.470;2022-07-18T04:16:19;12.98;;;8.30;;
70866;SDS011;58487;53.474;49.470;2022-07-18T04:18:45;13.23;;;7.82;;
70866;SDS011;58487;53.474;49.470;2022-07-18T04:21:12;11.87;;;7.77;;
70866;SDS011;58487;53.474;49.470;2022-07-18T04:23:39;12.52;;;8.40;;
70866;SDS011;58487;53.474;49.470;2022-07-18T04:26:06;16.85;;;8.40;;
70866;SDS011;58487;53.474;49.470;2022-07-18T04:28:32;13.48;;;8.40;;
70866;SDS011;58487;53.474;49.470;2022-07-18T04:30:58;15.95;;;7.93;;
70866;SDS011;58487;53.474;49.470;2022-07-18T04:33:24;10.53;;;8.10;;
70866;SDS011;58487;53.474;49.470;2022-07-18T04:35:51;12.00;;;8.40;;
70866;SDS011;58487;53.474;49.470;2022-07-18T04:38:17;10.05;;;7.60;;
70866;SDS011;58487;53.474;49.470;2022-07-18T04:40:43;10.82;;;7.72;;
70866;SDS011;58487;53.474;49.470;2022-07-18T04:43:10;9.65;;;7.63;;
70866;SDS011;58487;53.474;49.470;2022-07-18T04:45:36;14.23;;;7.97;;
70866;SDS011;58487;53.474;49.470;2022-07-18T04:48:03;13.10;;;7.65;;
70866;SDS011;58487;53.474;49.470;2022-07-18T04:50:30;14.15;;;7.40;;
70866;SDS011;58487;53.474;49.470;2022-07-18T04:52:57;13.38;;;7.93;;
70866;SDS011;58487;53.474;49.470;2022-07-18T04:55:23;13.98;;;7.80;;
70866;SDS011;58487;53.474;49.470;2022-07-18T04:57:51;10.77;;;7.43;;
70866;SDS011;58487;53.474;49.470;2022-07-18T05:04:35;12.15;;;7.38;;
70866;SDS011;58487;53.474;49.470;2022-07-18T05:07:01;12.98;;;7.80;;
70866;SDS011;58487;53.474;49.470;2022-07-18T05:09:27;11.40;;;7.75;;
70866;SDS011;58487;53.474;49.470;2022-07-18T05:11:54;10.27;;;7.67;;
70866;SDS011;58487;53.474;49.470;2022-07-18T05:14:20;11.55;;;7.65;;
70866;SDS011;58487;53.474;49.470;2022-07-18T05:16:46;11.18;;;7.55;;
70866;SDS011;58487;53.474;49.470;2022-07-18T05:19:13;12.52;;;7.53;;
70866;SDS011;58487;53.474;49.470;2022-07-18T05:21:44;12.32;;;7.95;;
70866;SDS011;58487;53.474;49.470;2022-07-18T05:24:10;14.30;;;7.73;;
70866;SDS011;58487;53.474;49.470;2022-07-18T05:26:37;13.15;;;8.25;;
70866;SDS011;58487;53.474;49.470;2022-07-18T05:29:03;12.38;;;7.65;;
70866;SDS011;58487;53.474;49.470;2022-07-18T05:31:29;9.55;;;7.78;;
70866;SDS011;58487;53.474;49.470;2022-07-18T05:33:55;12.75;;;8.07;;
70866;SDS011;58487;53.474;49.470;2022-07-18T05:36:21;13.80;;;8.50;;
70866;SDS011;58487;53.474;49.470;2022-07-18T05:38:47;11.13;;;8.32;;
70866;SDS011;58487;53.474;49.470;2022-07-18T05:41:14;12.38;;;7.60;;
70866;SDS011;58487;53.474;49.470;2022-07-18T05:43:40;10.60;;;7.97;;
70866;SDS011;58487;53.474;49.470;2022-07-18T05:46:06;10.73;;;8.50;;
70866;SDS011;58487;53.474;49.470;2022-07-18T05:48:32;11.27;;;8.20;;
70866;SDS011;58487;53.474;49.470;2022-07-18T05:50:59;13.02;;;8.15;;
70866;SDS011;58487;53.474;49.470;2022-07-18T05:53:25;11.75;;;8.75;;
70866;SDS011;58487;53.474;49.470;2022-07-18T05:55:51;11.15;;;8.40;;
70866;SDS011;58487;53.474;49.470;2022-07-18T05:58:17;12.57;;;8.40;;
70866;SDS011;58487;53.474;49.470;2022-07-18T06:00:43;13.87;;;8.27;;
70866;SDS011;58487;53.474;49.470;2022-07-18T06:03:09;13.35;;;7.80;;
70866;SDS011;58487;53.474;49.470;2022-07-18T06:05:36;15.35;;;8.32;;
70866;SDS011;58487;53.474;49.470;2022-07-18T06:08:02;11.68;;;7.97;;
70866;SDS011;58487;53.474;49.470;2022-07-18T06:10:28;14.65;;;8.20;;
70866;SDS011;58487;53.474;49.470;2022-07-18T06:12:55;15.63;;;7.73;;
70866;SDS011;58487;53.474;49.470;2022-07-18T06:15:21;13.90;;;8.40;;
70866;SDS011;58487;53.474;49.470;2022-07-18T06:17:47;11.63;;;8.30;;
70866;SDS011;58487;53.474;49.470;2022-07-18T06:20:13;12.95;;;8.55;;
70866;SDS011;58487;53.474;49.470;2022-07-18T06:22:40;12.25;;;8.43;;
70866;SDS011;58487;53.474;49.470;2022-07-18T06:25:06;12.03;;;8.63;;
70866;SDS011;58487;53.474;49.470;2022-07-18T06:27:33;12.32;;;8.15;;
70866;SDS011;58487;53.474;49.470;2022-07-18T06:30:00;15.65;;;8.50;;
70866;SDS011;58487;53.474;49.470;2022-07-18T06:32:29;20.73;;;7.90;;
70866;SDS011;58487;53.474;49.470;2022-07-18T06:34:56;14.52;;;8.50;;
70866;SDS011;58487;53.474;49.470;2022-07-18T06:37:22;16.57;;;8.07;;
70866;SDS011;58487;53.474;49.470;2022-07-18T06:39:48;10.65;;;8.05;;
70866;SDS011;58487;53.474;49.470;2022-07-18T06:42:14;13.13;;;8.90;;
70866;SDS011;58487;53.474;49.470;2022-07-18T06:44:40;16.30;;;7.95;;
70866;SDS011;58487;53.474;49.470;2022-07-18T06:47:07;10.77;;;7.55;;
70866;SDS011;58487;53.474;49.470;2022-07-18T06:49:33;10.73;;;8.23;;
70866;SDS011;58487;53.474;49.470;2022-07-18T06:51:59;12.80;;;7.95;;
70866;SDS011;58487;53.474;49.470;2022-07-18T06:54:25;10.80;;;7.60;;
70866;SDS011;58487;53.474;49.470;2022-07-18T06:56:56;11.68;;;8.00;;
70866;SDS011;58487;53.474;49.470;2022-07-18T06:59:24;12.43;;;7.40;;
70866;SDS011;58487;53.474;49.470;2022-07-18T07:01:50;12.40;;;7.63;;
70866;SDS011;58487;53.474;49.470;2022-07-18T07:04:16;12.95;;;7.60;;
70866;SDS011;58487;53.474;49.470;2022-07-18T07:06:42;9.35;;;7.07;;
70866;SDS011;58487;53.474;49.470;2022-07-18T07:09:09;9.55;;;6.78;;
70866;SDS011;58487;53.474;49.470;2022-07-18T07:11:35;11.02;;;6.90;;
70866;SDS011;58487;53.474;49.470;2022-07-18T07:14:01;10.73;;;6.80;;
70866;SDS011;58487;53.474;49.470;2022-07-18T07:16:27;11.30;;;6.70;;
70866;SDS011;58487;53.474;49.470;2022-07-18T07:18:54;11.68;;;6.43;;
70866;SDS011;58487;53.474;49.470;2022-07-18T07:21:20;10.27;;;6.40;;
70866;SDS011;58487;53.474;49.470;2022-07-18T07:23:46;9.65;;;6.60;;
70866;SDS011;58487;53.474;49.470;2022-07-18T07:26:12;8.57;;;6.20;;
70866;SDS011;58487;53.474;49.470;2022-07-18T07:28:38;9.43;;;6.30;;
70866;SDS011;58487;53.474;49.470;2022-07-18T07:31:04;8.70;;;5.85;;
70866;SDS011;58487;53.474;49.470;2022-07-18T07:33:31;9.85;;;5.70;;
70866;SDS011;58487;53.474;49.470;2022-07-18T07:35:57;8.45;;;5.93;;
70866;SDS011;58487;53.474;49.470;2022-07-18T07:38:23;9.33;;;5.47;;
70866;SDS011;58487;53.474;49.470;2022-07-18T07:40:53;7.78;;;5.93;;
70866;SDS011;58487;53.474;49.470;2022-07-18T07:43:20;8.02;;;5.70;;
70866;SDS011;58487;53.474;49.470;2022-07-18T07:45:47;10.25;;;5.88;;
70866;SDS011;58487;53.474;49.470;2022-07-18T07:48:14;9.65;;;5.88;;
70866;SDS011;58487;53.474;49.470;2022-07-18T07:50:41;8.80;;;6.30;;
70866;SDS011;58487;53.474;49.470;2022-07-18T07:53:08;8.20;;;5.60;;
70866;SDS011;58487;53.474;49.470;2022-07-18T07:55:34;7.85;;;5.57;;
70866;SDS011;58487;53.474;49.470;2022-07-18T07:58:00;10.13;;;5.97;;
70866;SDS011;58487;53.474;49.470;2022-07-18T08:00:26;10.20;;;5.90;;
70866;SDS011;58487;53.474;49.470;2022-07-18T08:03:05;6.80;;;5.20;;
70866;SDS011;58487;53.474;49.470;2022-07-18T08:05:34;8.73;;;5.60;;
70866;SDS011;58487;53.474;49.470;2022-07-18T08:08:02;7.75;;;5.75;;
70866;SDS011;58487;53.474;49.470;2022-07-18T08:10:29;8.10;;;5.30;;
70866;SDS011;58487;53.474;49.470;2022-07-18T08:12:56;9.77;;;5.80;;
70866;SDS011;58487;53.474;49.470;2022-07-18T08:15:23;7.97;;;6.00;;
70866;SDS011;58487;53.474;49.470;2022-07-18T08:17:50;10.10;;;6.88;;
70866;SDS011;58487;53.474;49.470;2022-07-18T08:20:16;7.93;;;5.90;;
70866;SDS011;58487;53.474;49.470;2022-07-18T08:22:52;10.77;;;5.50;;
70866;SDS011;58487;53.474;49.470;2022-07-18T08:25:19;7.75;;;5.82;;
70866;SDS011;58487;53.474;49.470;2022-07-18T08:27:46;9.30;;;5.90;;
70866;SDS011;58487;53.474;49.470;2022-07-18T08:30:12;7.80;;;5.55;;
70866;SDS011;58487;53.474;49.470;2022-07-18T08:32:38;7.47;;;5.78;;
70866;SDS011;58487;53.474;49.470;2022-07-18T08:35:04;9.77;;;6.10;;
70866;SDS011;58487;53.474;49.470;2022-07-18T08:37:31;7.75;;;5.80;;
70866;SDS011;58487;53.474;49.470;2022-07-18T08:39:57;6.90;;;5.20;;
70866;SDS011;58487;53.474;49.470;2022-07-18T08:42:24;10.75;;;6.60;;
70866;SDS011;58487;53.474;49.470;2022-07-18T08:44:55;10.50;;;6.80;;
70866;SDS011;58487;53.474;49.470;2022-07-18T08:47:22;10.38;;;5.88;;
70866;SDS011;58487;53.474;49.470;2022-07-18T08:49:49;12.82;;;6.80;;
70866;SDS011;58487;53.474;49.470;2022-07-18T08:52:15;8.90;;;5.80;;
70866;SDS011;58487;53.474;49.470;2022-07-18T08:54:42;11.73;;;5.97;;
70866;SDS011;58487;53.474;49.470;2022-07-18T08:57:08;10.35;;;5.95;;
70866;SDS011;58487;53.474;49.470;2022-07-18T08:59:34;10.05;;;5.70;;
70866;SDS011;58487;53.474;49.470;2022-07-18T09:02:01;10.43;;;6.00;;
70866;SDS011;58487;53.474;49.470;2022-07-18T09:07:07;9.48;;;5.68;;
70866;SDS011;58487;53.474;49.470;2022-07-18T09:09:35;7.28;;;6.00;;
70866;SDS011;58487;53.474;49.470;2022-07-18T09:20:00;10.98;;;5.65;;
70866;SDS011;58487;53.474;49.470;2022-07-18T09:22:45;7.70;;;5.50;;
70866;SDS011;58487;53.474;49.470;2022-07-18T09:25:16;9.95;;;6.35;;
70866;SDS011;58487;53.474;49.470;2022-07-18T09:27:46;9.35;;;5.78;;
70866;SDS011;58487;53.474;49.470;2022-07-18T09:32:44;9.53;;;6.23;;
70866;SDS011;58487;53.474;49.470;2022-07-18T09:35:17;8.75;;;5.57;;
70866;SDS011;58487;53.474;49.470;2022-07-18T09:37:51;10.70;;;6.40;;
70866;SDS011;58487;53.474;49.470;2022-07-18T09:40:30;8.82;;;6.43;;
70866;SDS011;58487;53.474;49.470;2022-07-18T09:43:05;9.73;;;6.20;;
70866;SDS011;58487;53.474;49.470;2022-07-18T09:48:01;7.50;;;6.17;;
70866;SDS011;58487;53.474;49.470;2022-07-18T09:50:29;7.63;;;6.05;;
70866;SDS011;58487;53.474;49.470;2022-07-18T09:55:28;10.40;;;6.80;;
70866;SDS011;58487;53.474;49.470;2022-07-18T09:58:05;10.90;;;7.00;;
70866;SDS011;58487;53.474;49.470;2022-07-18T10:00:35;9.05;;;7.43;;
70866;SDS011;58487;53.474;49.470;2022-07-18T10:03:04;9.80;;;7.63;;
70866;SDS011;58487;53.474;49.470;2022-07-18T10:05:35;12.47;;;7.60;;
70866;SDS011;58487;53.474;49.470;2022-07-18T10:08:03;14.52;;;7.95;;
70866;SDS011;58487;53.474;49.470;2022-07-18T10:10:34;11.18;;;8.10;;
70866;SDS011;58487;53.474;49.470;2022-07-18T10:13:02;9.38;;;8.20;;
70866;SDS011;58487;53.474;49.470;2022-07-18T10:15:30;9.20;;;7.90;;
70866;SDS011;58487;53.474;49.470;2022-07-18T10:17:58;12.32;;;8.40;;
70866;SDS011;58487;53.474;49.470;2022-07-18T10:23:46;13.00;;;8.40;;
70866;SDS011;58487;53.474;49.470;2022-07-18T10:31:59;9.40;;;8.40;;
70866;SDS011;58487;53.474;49.470;2022-07-18T10:34:28;11.20;;;8.60;;
70866;SDS011;58487;53.474;49.470;2022-07-18T10:39:38;11.23;;;8.40;;
70866;SDS011;58487;53.474;49.470;2022-07-18T10:44:37;11.70;;;9.10;;
70866;SDS011;58487;53.474;49.470;2022-07-18T10:47:13;10.20;;;8.75;;
70866;SDS011;58487;53.474;49.470;2022-07-18T10:57:33;10.70;;;8.68;;
70866;SDS011;58487;53.474;49.470;2022-07-18T11:00:10;11.88;;;8.80;;
70866;SDS011;58487;53.474;49.470;2022-07-18T11:02:46;13.32;;;8.60;;
70866;SDS011;58487;53.474;49.470;2022-07-18T11:15:58;13.90;;;8.90;;
70866;SDS011;58487;53.474;49.470;2022-07-18T11:18:32;10.25;;;8.60;;
70866;SDS011;58487;53.474;49.470;2022-07-18T11:24:00;10.38;;;8.75;;
70866;SDS011;58487;53.474;49.470;2022-07-18T11:26:37;9.38;;;8.30;;
70866;SDS011;58487;53.474;49.470;2022-07-18T11:29:12;11.10;;;8.82;;
70866;SDS011;58487;53.474;49.470;2022-07-18T11:31:46;10.30;;;9.10;;
70866;SDS011;58487;53.474;49.470;2022-07-18T11:34:13;10.23;;;8.43;;
70866;SDS011;58487;53.474;49.470;2022-07-18T11:36:41;9.50;;;7.85;;
70866;SDS011;58487;53.474;49.470;2022-07-18T11:39:09;8.98;;;8.02;;
70866;SDS011;58487;53.474;49.470;2022-07-18T11:41:39;8.90;;;7.97;;
70866;SDS011;58487;53.474;49.470;2022-07-18T11:44:15;10.45;;;8.07;;
70866;SDS011;58487;53.474;49.470;2022-07-18T11:46:43;9.35;;;7.65;;
70866;SDS011;58487;53.474;49.470;2022-07-18T11:49:09;9.88;;;7.63;;
70866;SDS011;58487;53.474;49.470;2022-07-18T11:51:42;9.77;;;8.57;;
70866;SDS011;58487;53.474;49.470;2022-07-18T11:54:10;8.90;;;8.00;;
70866;SDS011;58487;53.474;49.470;2022-07-18T11:56:46;9.73;;;8.73;;
70866;SDS011;58487;53.474;49.470;2022-07-18T11:59:14;9.43;;;7.90;;
70866;SDS011;58487;53.474;49.470;2022-07-18T12:01:41;12.55;;;7.50;;
70866;SDS011;58487;53.474;49.470;2022-07-18T12:04:20;9.70;;;8.70;;
70866;SDS011;58487;53.474;49.470;2022-07-18T12:09:38;12.18;;;9.27;;
70866;SDS011;58487;53.474;49.470;2022-07-18T12:12:11;11.27;;;7.68;;
70866;SDS011;58487;53.474;49.470;2022-07-18T12:14:39;10.13;;;7.37;;
70866;SDS011;58487;53.474;49.470;2022-07-18T12:17:05;9.10;;;7.43;;
70866;SDS011;58487;53.474;49.470;2022-07-18T12:19:38;8.95;;;6.78;;
70866;SDS011;58487;53.474;49.470;2022-07-18T12:30:02;9.55;;;7.25;;
70866;SDS011;58487;53.474;49.470;2022-07-18T12:32:45;8.57;;;7.22;;
70866;SDS011;58487;53.474;49.470;2022-07-18T12:35:14;10.00;;;7.17;;
70866;SDS011;58487;53.474;49.470;2022-07-18T12:37:40;8.47;;;7.20;;
70866;SDS011;58487;53.474;49.470;2022-07-18T12:40:08;11.30;;;7.70;;
70866;SDS011;58487;53.474;49.470;2022-07-18T12:42:36;10.60;;;7.43;;
70866;SDS011;58487;53.474;49.470;2022-07-18T12:45:04;8.70;;;6.40;;
70866;SDS011;58487;53.474;49.470;2022-07-18T12:47:32;9.88;;;6.70;;
70866;SDS011;58487;53.474;49.470;2022-07-18T12:49:58;11.63;;;7.22;;
70866;SDS011;58487;53.474;49.470;2022-07-18T12:52:25;13.03;;;6.63;;
70866;SDS011;58487;53.474;49.470;2022-07-18T12:54:51;10.23;;;6.80;;
70866;SDS011;58487;53.474;49.470;2022-07-18T12:57:17;13.05;;;7.53;;
70866;SDS011;58487;53.474;49.470;2022-07-18T12:59:44;8.88;;;7.32;;
70866;SDS011;58487;53.474;49.470;2022-07-18T13:02:11;7.40;;;6.55;;
70866;SDS011;58487;53.474;49.470;2022-07-18T13:04:38;7.97;;;6.72;;
70866;SDS011;58487;53.474;49.470;2022-07-18T13:07:04;11.93;;;7.73;;
70866;SDS011;58487;53.474;49.470;2022-07-18T13:09:30;10.10;;;7.00;;
70866;SDS011;58487;53.474;49.470;2022-07-18T13:11:58;9.80;;;6.93;;
70866;SDS011;58487;53.474;49.470;2022-07-18T13:14:24;8.50;;;6.80;;
70866;SDS011;58487;53.474;49.470;2022-07-18T13:16:51;10.85;;;6.55;;
70866;SDS011;58487;53.474;49.470;2022-07-18T13:19:18;8.47;;;6.50;;
70866;SDS011;58487;53.474;49.470;2022-07-18T13:21:45;11.00;;;6.47;;
70866;SDS011;58487;53.474;49.470;2022-07-18T13:24:13;8.60;;;6.80;;
70866;SDS011;58487;53.474;49.470;2022-07-18T13:26:40;10.18;;;6.13;;
70866;SDS011;58487;53.474;49.470;2022-07-18T13:29:07;12.55;;;6.78;;
70866;SDS011;58487;53.474;49.470;2022-07-18T13:31:34;9.38;;;6.60;;
70866;SDS011;58487;53.474;49.470;2022-07-18T13:34:02;18.70;;;7.77;;
70866;SDS011;58487;53.474;49.470;2022-07-18T13:36:29;10.30;;;7.00;;
70866;SDS011;58487;53.474;49.470;2022-07-18T13:38:57;10.43;;;7.20;;
70866;SDS011;58487;53.474;49.470;2022-07-18T13:41:23;9.70;;;6.75;;
70866;SDS011;58487;53.474;49.470;2022-07-18T13:43:49;10.15;;;6.60;;
70866;SDS011;58487;53.474;49.470;2022-07-18T13:46:15;11.02;;;6.90;;
70866;SDS011;58487;53.474;49.470;2022-07-18T13:48:43;12.40;;;7.43;;
70866;SDS011;58487;53.474;49.470;2022-07-18T13:51:09;15.30;;;7.73;;
70866;SDS011;58487;53.474;49.470;2022-07-18T13:53:35;9.50;;;7.38;;
70866;SDS011;58487;53.474;49.470;2022-07-18T13:56:01;9.68;;;7.03;;
70866;SDS011;58487;53.474;49.470;2022-07-18T13:58:27;10.75;;;7.40;;
70866;SDS011;58487;53.474;49.470;2022-07-18T14:00:53;9.40;;;7.68;;
70866;SDS011;58487;53.474;49.470;2022-07-18T14:03:19;11.23;;;7.83;;
70866;SDS011;58487;53.474;49.470;2022-07-18T14:05:45;11.48;;;8.23;;
70866;SDS011;58487;53.474;49.470;2022-07-18T14:08:11;10.05;;;7.40;;
70866;SDS011;58487;53.474;49.470;2022-07-18T14:10:38;10.60;;;7.80;;
70866;SDS011;58487;53.474;49.470;2022-07-18T14:13:04;9.63;;;7.68;;
70866;SDS011;58487;53.474;49.470;2022-07-18T14:15:30;13.53;;;8.03;;
70866;SDS011;58487;53.474;49.470;2022-07-18T14:17:56;14.40;;;8.13;;
70866;SDS011;58487;53.474;49.470;2022-07-18T14:20:22;13.07;;;7.85;;
70866;SDS011;58487;53.474;49.470;2022-07-18T14:22:49;11.98;;;8.10;;
70866;SDS011;58487;53.474;49.470;2022-07-18T14:25:16;12.77;;;8.40;;
70866;SDS011;58487;53.474;49.470;2022-07-18T14:27:43;13.27;;;8.30;;
70866;SDS011;58487;53.474;49.470;2022-07-18T14:30:11;10.93;;;8.18;;
70866;SDS011;58487;53.474;49.470;2022-07-18T14:32:39;19.13;;;10.05;;
70866;SDS011;58487;53.474;49.470;2022-07-18T14:35:06;12.38;;;8.40;;
70866;SDS011;58487;53.474;49.470;2022-07-18T14:37:33;16.95;;;9.82;;
70866;SDS011;58487;53.474;49.470;2022-07-18T14:40:00;16.80;;;9.10;;
70866;SDS011;58487;53.474;49.470;2022-07-18T14:42:26;15.52;;;8.90;;
70866;SDS011;58487;53.474;49.470;2022-07-18T14:44:52;13.60;;;8.68;;
70866;SDS011;58487;53.474;49.470;2022-07-18T14:47:19;14.50;;;8.20;;
70866;SDS011;58487;53.474;49.470;2022-07-18T14:49:45;11.98;;;8.07;;
70866;SDS011;58487;53.474;49.470;2022-07-18T14:52:12;12.87;;;6.73;;
70866;SDS011;58487;53.474;49.470;2022-07-18T14:54:38;10.23;;;7.20;;
70866;SDS011;58487;53.474;49.470;2022-07-18T14:57:04;12.52;;;7.38;;
70866;SDS011;58487;53.474;49.470;2022-07-18T14:59:31;16.17;;;7.65;;
70866;SDS011;58487;53.474;49.470;2022-07-18T15:01:57;13.73;;;8.32;;
70866;SDS011;58487;53.474;49.470;2022-07-18T15:04:27;11.73;;;7.07;;
70866;SDS011;58487;53.474;49.470;2022-07-18T15:06:54;32.78;;;18.60;;
70866;SDS011;58487;53.474;49.470;2022-07-18T15:09:20;11.68;;;8.13;;
70866;SDS011;58487;53.474;49.470;2022-07-18T15:11:46;9.57;;;6.45;;
70866;SDS011;58487;53.474;49.470;2022-07-18T15:14:12;10.38;;;7.00;;
70866;SDS011;58487;53.474;49.470;2022-07-18T15:16:39;12.63;;;7.20;;
70866;SDS011;58487;53.474;49.470;2022-07-18T15:19:05;12.93;;;7.70;;
70866;SDS011;58487;53.474;49.470;2022-07-18T15:21:32;10.52;;;6.97;;
70866;SDS011;58487;53.474;49.470;2022-07-18T15:23:58;10.60;;;7.30;;
70866;SDS011;58487;53.474;49.470;2022-07-18T15:26:24;10.38;;;7.63;;
70866;SDS011;58487;53.474;49.470;2022-07-18T15:28:51;11.13;;;7.43;;
70866;SDS011;58487;53.474;49.470;2022-07-18T15:31:17;13.93;;;6.95;;
70866;SDS011;58487;53.474;49.470;2022-07-18T15:33:44;7.05;;;3.47;;